sensor_id;sensor_type;location;lat;lon;timestamp;P1;durP1;ratioP1;P2;durP2;ratioP2
74908;SDS011;63468;52.058;4.824;2022-12-18T00:01:44;96.95;;;30.77;;
74908;SDS011;63468;52.058;4.824;2022-12-18T00:04:22;90.00;;;30.55;;
74908;SDS011;63468;52.058;4.824;2022-12-18T00:06:48;76.43;;;27.63;;
74908;SDS011;63468;52.058;4.824;2022-12-18T00:09:14;96.05;;;31.05;;
74908;SDS011;63468;52.058;4.824;2022-12-18T00:11:39;90.85;;;33.65;;
74908;SDS011;63468;52.058;4.824;2022-12-18T00:14:04;87.05;;;32.03;;
74908;SDS011;63468;52.058;4.824;2022-12-18T00:16:30;78.18;;;29.98;;
74908;SDS011;63468;52.058;4.824;2022-12-18T00:18:58;110.53;;;36.10;;
74908;SDS011;63468;52.058;4.824;2022-12-18T00:21:24;100.25;;;32.80;;
74908;SDS011;63468;52.058;4.824;2022-12-18T00:23:50;108.15;;;32.70;;
74908;SDS011;63468;52.058;4.824;2022-12-18T00:26:17;84.55;;;31.65;;
74908;SDS011;63468;52.058;4.824;2022-12-18T00:28:44;73.13;;;26.80;;
74908;SDS011;63468;52.058;4.824;2022-12-18T00:31:10;94.28;;;30.42;;
74908;SDS011;63468;52.058;4.824;2022-12-18T00:33:37;80.60;;;28.15;;
74908;SDS011;63468;52.058;4.824;2022-12-18T00:36:10;86.65;;;30.75;;
74908;SDS011;63468;52.058;4.824;2022-12-18T00:38:37;84.93;;;31.85;;
74908;SDS011;63468;52.058;4.824;2022-12-18T00:41:03;93.45;;;28.83;;
74908;SDS011;63468;52.058;4.824;2022-12-18T00:43:28;84.85;;;30.65;;
74908;SDS011;63468;52.058;4.824;2022-12-18T00:45:53;95.43;;;29.80;;
74908;SDS011;63468;52.058;4.824;2022-12-18T00:48:19;80.30;;;28.55;;
74908;SDS011;63468;52.058;4.824;2022-12-18T00:50:44;80.13;;;27.13;;
74908;SDS011;63468;52.058;4.824;2022-12-18T00:53:10;92.18;;;30.83;;
74908;SDS011;63468;52.058;4.824;2022-12-18T00:55:37;81.22;;;30.65;;
74908;SDS011;63468;52.058;4.824;2022-12-18T00:58:02;88.35;;;30.75;;
74908;SDS011;63468;52.058;4.824;2022-12-18T01:00:28;83.05;;;31.65;;
74908;SDS011;63468;52.058;4.824;2022-12-18T01:02:53;68.35;;;27.60;;
74908;SDS011;63468;52.058;4.824;2022-12-18T01:05:18;74.85;;;30.02;;
74908;SDS011;63468;52.058;4.824;2022-12-18T01:07:44;78.28;;;29.95;;
74908;SDS011;63468;52.058;4.824;2022-12-18T01:10:09;91.55;;;30.17;;
74908;SDS011;63468;52.058;4.824;2022-12-18T01:12:36;71.65;;;26.50;;
74908;SDS011;63468;52.058;4.824;2022-12-18T01:15:02;75.05;;;26.90;;
74908;SDS011;63468;52.058;4.824;2022-12-18T01:17:28;66.53;;;27.50;;
74908;SDS011;63468;52.058;4.824;2022-12-18T01:19:53;69.57;;;26.80;;
74908;SDS011;63468;52.058;4.824;2022-12-18T01:22:18;81.70;;;28.58;;
74908;SDS011;63468;52.058;4.824;2022-12-18T01:24:44;67.32;;;28.00;;
74908;SDS011;63468;52.058;4.824;2022-12-18T01:27:09;76.25;;;28.60;;
74908;SDS011;63468;52.058;4.824;2022-12-18T01:29:34;82.43;;;30.42;;
74908;SDS011;63468;52.058;4.824;2022-12-18T01:32:00;68.53;;;27.23;;
74908;SDS011;63468;52.058;4.824;2022-12-18T01:34:25;84.10;;;28.65;;
74908;SDS011;63468;52.058;4.824;2022-12-18T01:36:50;71.30;;;27.15;;
74908;SDS011;63468;52.058;4.824;2022-12-18T01:39:17;69.35;;;26.48;;
74908;SDS011;63468;52.058;4.824;2022-12-18T01:41:43;72.10;;;25.13;;
74908;SDS011;63468;52.058;4.824;2022-12-18T01:47:23;63.63;;;24.85;;
74908;SDS011;63468;52.058;4.824;2022-12-18T01:49:52;59.40;;;24.42;;
74908;SDS011;63468;52.058;4.824;2022-12-18T01:52:18;71.78;;;26.73;;
74908;SDS011;63468;52.058;4.824;2022-12-18T01:54:44;57.95;;;24.50;;
74908;SDS011;63468;52.058;4.824;2022-12-18T01:57:10;66.32;;;26.55;;
74908;SDS011;63468;52.058;4.824;2022-12-18T01:59:36;56.45;;;25.55;;
74908;SDS011;63468;52.058;4.824;2022-12-18T02:02:02;66.97;;;24.35;;
74908;SDS011;63468;52.058;4.824;2022-12-18T02:04:27;57.80;;;25.52;;
74908;SDS011;63468;52.058;4.824;2022-12-18T02:07:01;56.40;;;23.73;;
74908;SDS011;63468;52.058;4.824;2022-12-18T02:09:29;57.13;;;23.65;;
74908;SDS011;63468;52.058;4.824;2022-12-18T02:11:59;59.33;;;24.65;;
74908;SDS011;63468;52.058;4.824;2022-12-18T02:17:36;63.38;;;23.42;;
74908;SDS011;63468;52.058;4.824;2022-12-18T02:26:22;58.65;;;24.08;;
74908;SDS011;63468;52.058;4.824;2022-12-18T02:28:53;57.88;;;24.85;;
74908;SDS011;63468;52.058;4.824;2022-12-18T02:31:24;65.50;;;24.27;;
74908;SDS011;63468;52.058;4.824;2022-12-18T02:33:53;56.03;;;23.48;;
74908;SDS011;63468;52.058;4.824;2022-12-18T02:36:20;51.08;;;22.80;;
74908;SDS011;63468;52.058;4.824;2022-12-18T02:38:46;67.30;;;25.15;;
74908;SDS011;63468;52.058;4.824;2022-12-18T02:41:12;67.18;;;24.52;;
74908;SDS011;63468;52.058;4.824;2022-12-18T02:43:39;76.10;;;27.17;;
74908;SDS011;63468;52.058;4.824;2022-12-18T02:48:55;64.22;;;24.83;;
74908;SDS011;63468;52.058;4.824;2022-12-18T02:51:29;66.55;;;22.90;;
74908;SDS011;63468;52.058;4.824;2022-12-18T02:54:05;56.47;;;22.80;;
74908;SDS011;63468;52.058;4.824;2022-12-18T02:56:38;55.45;;;22.38;;
74908;SDS011;63468;52.058;4.824;2022-12-18T02:59:11;52.80;;;23.00;;
74908;SDS011;63468;52.058;4.824;2022-12-18T03:04:11;56.38;;;24.60;;
74908;SDS011;63468;52.058;4.824;2022-12-18T03:06:40;67.07;;;25.40;;
74908;SDS011;63468;52.058;4.824;2022-12-18T03:09:12;67.50;;;23.65;;
74908;SDS011;63468;52.058;4.824;2022-12-18T03:11:40;63.10;;;25.48;;
74908;SDS011;63468;52.058;4.824;2022-12-18T03:14:26;79.68;;;26.10;;
74908;SDS011;63468;52.058;4.824;2022-12-18T03:16:52;72.47;;;26.65;;
74908;SDS011;63468;52.058;4.824;2022-12-18T03:19:20;76.57;;;26.73;;
74908;SDS011;63468;52.058;4.824;2022-12-18T03:21:50;83.80;;;28.85;;
74908;SDS011;63468;52.058;4.824;2022-12-18T03:24:18;76.30;;;29.08;;
74908;SDS011;63468;52.058;4.824;2022-12-18T03:26:45;71.88;;;26.85;;
74908;SDS011;63468;52.058;4.824;2022-12-18T03:29:13;74.93;;;29.25;;
74908;SDS011;63468;52.058;4.824;2022-12-18T03:31:43;72.10;;;25.38;;
74908;SDS011;63468;52.058;4.824;2022-12-18T03:34:13;74.10;;;25.30;;
74908;SDS011;63468;52.058;4.824;2022-12-18T03:36:40;57.00;;;22.38;;
74908;SDS011;63468;52.058;4.824;2022-12-18T03:39:06;67.88;;;26.00;;
74908;SDS011;63468;52.058;4.824;2022-12-18T03:41:32;65.57;;;26.10;;
74908;SDS011;63468;52.058;4.824;2022-12-18T03:44:11;65.63;;;24.27;;
74908;SDS011;63468;52.058;4.824;2022-12-18T03:49:48;55.95;;;22.88;;
74908;SDS011;63468;52.058;4.824;2022-12-18T03:52:30;54.47;;;23.80;;
74908;SDS011;63468;52.058;4.824;2022-12-18T03:54:59;62.30;;;23.92;;
74908;SDS011;63468;52.058;4.824;2022-12-18T03:57:26;62.50;;;24.77;;
74908;SDS011;63468;52.058;4.824;2022-12-18T04:00:00;63.50;;;22.80;;
74908;SDS011;63468;52.058;4.824;2022-12-18T04:02:49;54.45;;;22.60;;
74908;SDS011;63468;52.058;4.824;2022-12-18T04:05:17;62.47;;;23.88;;
74908;SDS011;63468;52.058;4.824;2022-12-18T04:07:47;56.47;;;22.67;;
74908;SDS011;63468;52.058;4.824;2022-12-18T04:10:14;62.70;;;24.25;;
74908;SDS011;63468;52.058;4.824;2022-12-18T04:12:41;62.72;;;23.50;;
74908;SDS011;63468;52.058;4.824;2022-12-18T04:15:07;56.85;;;22.50;;
74908;SDS011;63468;52.058;4.824;2022-12-18T04:17:32;59.95;;;25.98;;
74908;SDS011;63468;52.058;4.824;2022-12-18T04:19:57;68.78;;;25.63;;
74908;SDS011;63468;52.058;4.824;2022-12-18T04:22:23;67.60;;;25.80;;
74908;SDS011;63468;52.058;4.824;2022-12-18T04:24:48;58.78;;;23.45;;
74908;SDS011;63468;52.058;4.824;2022-12-18T04:27:13;58.88;;;23.45;;
74908;SDS011;63468;52.058;4.824;2022-12-18T04:29:39;54.58;;;22.45;;
74908;SDS011;63468;52.058;4.824;2022-12-18T04:32:04;57.30;;;23.52;;
74908;SDS011;63468;52.058;4.824;2022-12-18T04:34:29;53.40;;;21.15;;
74908;SDS011;63468;52.058;4.824;2022-12-18T04:36:55;52.78;;;21.75;;
74908;SDS011;63468;52.058;4.824;2022-12-18T04:39:20;70.93;;;24.73;;
74908;SDS011;63468;52.058;4.824;2022-12-18T04:41:46;54.60;;;23.63;;
74908;SDS011;63468;52.058;4.824;2022-12-18T04:44:11;63.10;;;22.30;;
74908;SDS011;63468;52.058;4.824;2022-12-18T04:46:36;66.85;;;23.17;;
74908;SDS011;63468;52.058;4.824;2022-12-18T04:49:02;61.28;;;23.02;;
74908;SDS011;63468;52.058;4.824;2022-12-18T04:51:27;56.83;;;22.42;;
74908;SDS011;63468;52.058;4.824;2022-12-18T04:53:53;60.13;;;22.67;;
74908;SDS011;63468;52.058;4.824;2022-12-18T04:56:18;54.03;;;22.63;;
74908;SDS011;63468;52.058;4.824;2022-12-18T04:58:44;57.47;;;21.73;;
74908;SDS011;63468;52.058;4.824;2022-12-18T05:01:12;68.88;;;23.42;;
74908;SDS011;63468;52.058;4.824;2022-12-18T05:03:38;60.47;;;23.20;;
74908;SDS011;63468;52.058;4.824;2022-12-18T05:06:04;54.10;;;22.52;;
74908;SDS011;63468;52.058;4.824;2022-12-18T05:08:30;62.00;;;22.25;;
74908;SDS011;63468;52.058;4.824;2022-12-18T05:11:03;54.88;;;23.65;;
74908;SDS011;63468;52.058;4.824;2022-12-18T05:13:33;55.92;;;21.02;;
74908;SDS011;63468;52.058;4.824;2022-12-18T05:15:59;67.30;;;23.02;;
74908;SDS011;63468;52.058;4.824;2022-12-18T05:18:25;59.10;;;25.60;;
74908;SDS011;63468;52.058;4.824;2022-12-18T05:20:51;61.70;;;23.15;;
74908;SDS011;63468;52.058;4.824;2022-12-18T05:23:17;50.33;;;21.88;;
74908;SDS011;63468;52.058;4.824;2022-12-18T05:25:46;57.40;;;22.00;;
74908;SDS011;63468;52.058;4.824;2022-12-18T05:28:18;50.45;;;22.48;;
74908;SDS011;63468;52.058;4.824;2022-12-18T05:30:47;58.17;;;23.08;;
74908;SDS011;63468;52.058;4.824;2022-12-18T05:33:13;56.95;;;22.95;;
74908;SDS011;63468;52.058;4.824;2022-12-18T05:35:38;61.78;;;22.77;;
74908;SDS011;63468;52.058;4.824;2022-12-18T05:38:04;47.33;;;22.02;;
74908;SDS011;63468;52.058;4.824;2022-12-18T05:40:30;58.92;;;24.98;;
74908;SDS011;63468;52.058;4.824;2022-12-18T05:42:55;56.72;;;21.75;;
74908;SDS011;63468;52.058;4.824;2022-12-18T05:45:20;47.65;;;22.42;;
74908;SDS011;63468;52.058;4.824;2022-12-18T05:47:46;49.90;;;21.02;;
74908;SDS011;63468;52.058;4.824;2022-12-18T05:50:11;52.22;;;20.73;;
74908;SDS011;63468;52.058;4.824;2022-12-18T05:52:36;56.15;;;22.48;;
74908;SDS011;63468;52.058;4.824;2022-12-18T05:55:01;50.75;;;22.80;;
74908;SDS011;63468;52.058;4.824;2022-12-18T05:57:27;61.35;;;23.92;;
74908;SDS011;63468;52.058;4.824;2022-12-18T05:59:52;52.58;;;22.40;;
74908;SDS011;63468;52.058;4.824;2022-12-18T06:02:17;49.33;;;22.05;;
74908;SDS011;63468;52.058;4.824;2022-12-18T06:04:43;42.47;;;22.17;;
74908;SDS011;63468;52.058;4.824;2022-12-18T06:07:08;49.92;;;20.88;;
74908;SDS011;63468;52.058;4.824;2022-12-18T06:09:33;56.22;;;21.52;;
74908;SDS011;63468;52.058;4.824;2022-12-18T06:11:59;51.50;;;20.30;;
74908;SDS011;63468;52.058;4.824;2022-12-18T06:14:24;62.25;;;25.52;;
74908;SDS011;63468;52.058;4.824;2022-12-18T06:16:50;55.97;;;25.38;;
74908;SDS011;63468;52.058;4.824;2022-12-18T06:19:16;52.30;;;24.92;;
74908;SDS011;63468;52.058;4.824;2022-12-18T06:21:41;55.10;;;23.40;;
74908;SDS011;63468;52.058;4.824;2022-12-18T06:24:07;52.13;;;22.52;;
74908;SDS011;63468;52.058;4.824;2022-12-18T06:26:32;46.58;;;21.23;;
74908;SDS011;63468;52.058;4.824;2022-12-18T06:28:57;48.92;;;22.02;;
74908;SDS011;63468;52.058;4.824;2022-12-18T06:31:23;54.22;;;22.90;;
74908;SDS011;63468;52.058;4.824;2022-12-18T06:33:48;44.60;;;24.80;;
74908;SDS011;63468;52.058;4.824;2022-12-18T06:36:14;51.08;;;23.58;;
74908;SDS011;63468;52.058;4.824;2022-12-18T06:38:40;52.78;;;25.45;;
74908;SDS011;63468;52.058;4.824;2022-12-18T06:41:24;56.47;;;23.65;;
74908;SDS011;63468;52.058;4.824;2022-12-18T06:43:50;53.38;;;24.25;;
74908;SDS011;63468;52.058;4.824;2022-12-18T06:46:15;51.53;;;24.52;;
74908;SDS011;63468;52.058;4.824;2022-12-18T06:48:41;71.00;;;29.75;;
74908;SDS011;63468;52.058;4.824;2022-12-18T06:51:06;73.65;;;31.75;;
74908;SDS011;63468;52.058;4.824;2022-12-18T06:53:34;64.60;;;30.27;;
74908;SDS011;63468;52.058;4.824;2022-12-18T06:56:02;70.15;;;29.73;;
74908;SDS011;63468;52.058;4.824;2022-12-18T06:58:29;56.03;;;26.35;;
74908;SDS011;63468;52.058;4.824;2022-12-18T07:00:59;63.78;;;30.52;;
74908;SDS011;63468;52.058;4.824;2022-12-18T07:03:28;51.47;;;26.23;;
74908;SDS011;63468;52.058;4.824;2022-12-18T07:05:53;58.28;;;28.23;;
74908;SDS011;63468;52.058;4.824;2022-12-18T07:08:19;61.78;;;29.40;;
74908;SDS011;63468;52.058;4.824;2022-12-18T07:10:44;57.65;;;25.45;;
74908;SDS011;63468;52.058;4.824;2022-12-18T07:13:09;47.08;;;23.05;;
74908;SDS011;63468;52.058;4.824;2022-12-18T07:15:35;48.65;;;23.90;;
74908;SDS011;63468;52.058;4.824;2022-12-18T07:18:00;50.50;;;24.63;;
74908;SDS011;63468;52.058;4.824;2022-12-18T07:20:25;55.28;;;24.52;;
74908;SDS011;63468;52.058;4.824;2022-12-18T07:22:51;57.53;;;23.50;;
74908;SDS011;63468;52.058;4.824;2022-12-18T07:25:16;50.90;;;24.63;;
74908;SDS011;63468;52.058;4.824;2022-12-18T07:27:41;52.28;;;23.40;;
74908;SDS011;63468;52.058;4.824;2022-12-18T07:30:07;41.20;;;21.48;;
74908;SDS011;63468;52.058;4.824;2022-12-18T07:32:33;44.63;;;23.55;;
74908;SDS011;63468;52.058;4.824;2022-12-18T07:34:59;48.80;;;23.52;;
74908;SDS011;63468;52.058;4.824;2022-12-18T07:37:24;45.55;;;21.40;;
74908;SDS011;63468;52.058;4.824;2022-12-18T07:39:50;40.60;;;19.92;;
74908;SDS011;63468;52.058;4.824;2022-12-18T07:42:15;43.72;;;20.65;;
74908;SDS011;63468;52.058;4.824;2022-12-18T07:44:55;43.55;;;23.30;;
74908;SDS011;63468;52.058;4.824;2022-12-18T07:47:21;42.80;;;21.65;;
74908;SDS011;63468;52.058;4.824;2022-12-18T07:49:46;38.92;;;19.33;;
74908;SDS011;63468;52.058;4.824;2022-12-18T07:52:11;39.15;;;19.63;;
74908;SDS011;63468;52.058;4.824;2022-12-18T07:54:37;36.70;;;18.30;;
74908;SDS011;63468;52.058;4.824;2022-12-18T07:57:02;46.20;;;20.15;;
74908;SDS011;63468;52.058;4.824;2022-12-18T07:59:28;37.50;;;20.58;;
74908;SDS011;63468;52.058;4.824;2022-12-18T08:01:53;48.80;;;20.88;;
74908;SDS011;63468;52.058;4.824;2022-12-18T08:04:18;45.13;;;20.88;;
74908;SDS011;63468;52.058;4.824;2022-12-18T08:06:44;48.05;;;22.77;;
74908;SDS011;63468;52.058;4.824;2022-12-18T08:09:09;44.78;;;19.77;;
74908;SDS011;63468;52.058;4.824;2022-12-18T08:11:35;47.65;;;21.45;;
74908;SDS011;63468;52.058;4.824;2022-12-18T08:14:00;39.25;;;20.48;;
74908;SDS011;63468;52.058;4.824;2022-12-18T08:16:25;43.15;;;21.33;;
74908;SDS011;63468;52.058;4.824;2022-12-18T08:18:51;39.63;;;20.95;;
74908;SDS011;63468;52.058;4.824;2022-12-18T08:21:18;40.80;;;21.60;;
74908;SDS011;63468;52.058;4.824;2022-12-18T08:23:47;43.92;;;19.48;;
74908;SDS011;63468;52.058;4.824;2022-12-18T08:26:12;40.08;;;19.05;;
74908;SDS011;63468;52.058;4.824;2022-12-18T08:28:38;34.78;;;19.02;;
74908;SDS011;63468;52.058;4.824;2022-12-18T08:31:04;36.97;;;19.58;;
74908;SDS011;63468;52.058;4.824;2022-12-18T08:33:30;44.15;;;19.45;;
74908;SDS011;63468;52.058;4.824;2022-12-18T08:35:55;33.10;;;17.40;;
74908;SDS011;63468;52.058;4.824;2022-12-18T08:38:20;39.25;;;19.23;;
74908;SDS011;63468;52.058;4.824;2022-12-18T08:40:46;41.28;;;17.30;;
74908;SDS011;63468;52.058;4.824;2022-12-18T08:43:11;41.45;;;19.60;;
74908;SDS011;63468;52.058;4.824;2022-12-18T08:45:55;31.70;;;17.33;;
74908;SDS011;63468;52.058;4.824;2022-12-18T08:48:21;36.03;;;15.55;;
74908;SDS011;63468;52.058;4.824;2022-12-18T08:50:54;34.78;;;17.38;;
74908;SDS011;63468;52.058;4.824;2022-12-18T08:53:20;35.88;;;17.95;;
74908;SDS011;63468;52.058;4.824;2022-12-18T08:55:45;32.67;;;18.88;;
74908;SDS011;63468;52.058;4.824;2022-12-18T08:58:10;37.45;;;17.50;;
74908;SDS011;63468;52.058;4.824;2022-12-18T09:00:36;40.50;;;19.70;;
74908;SDS011;63468;52.058;4.824;2022-12-18T09:03:01;41.10;;;16.13;;
74908;SDS011;63468;52.058;4.824;2022-12-18T09:05:26;39.95;;;17.70;;
74908;SDS011;63468;52.058;4.824;2022-12-18T09:07:52;37.60;;;18.58;;
74908;SDS011;63468;52.058;4.824;2022-12-18T09:10:17;48.30;;;19.10;;
74908;SDS011;63468;52.058;4.824;2022-12-18T09:12:42;36.13;;;17.42;;
74908;SDS011;63468;52.058;4.824;2022-12-18T09:15:08;31.35;;;16.52;;
74908;SDS011;63468;52.058;4.824;2022-12-18T09:17:33;32.17;;;16.40;;
74908;SDS011;63468;52.058;4.824;2022-12-18T09:19:59;44.25;;;19.38;;
74908;SDS011;63468;52.058;4.824;2022-12-18T09:22:24;35.78;;;17.83;;
74908;SDS011;63468;52.058;4.824;2022-12-18T09:24:49;35.00;;;18.48;;
74908;SDS011;63468;52.058;4.824;2022-12-18T09:27:15;34.92;;;17.83;;
74908;SDS011;63468;52.058;4.824;2022-12-18T09:29:40;40.17;;;18.92;;
74908;SDS011;63468;52.058;4.824;2022-12-18T09:32:05;37.08;;;17.60;;
74908;SDS011;63468;52.058;4.824;2022-12-18T09:34:31;42.85;;;19.45;;
74908;SDS011;63468;52.058;4.824;2022-12-18T09:36:56;35.42;;;19.13;;
74908;SDS011;63468;52.058;4.824;2022-12-18T09:39:21;38.45;;;18.77;;
74908;SDS011;63468;52.058;4.824;2022-12-18T09:44:39;43.72;;;20.10;;
74908;SDS011;63468;52.058;4.824;2022-12-18T09:47:11;39.03;;;19.50;;
74908;SDS011;63468;52.058;4.824;2022-12-18T09:49:43;41.97;;;17.55;;
74908;SDS011;63468;52.058;4.824;2022-12-18T09:52:20;38.35;;;18.67;;
74908;SDS011;63468;52.058;4.824;2022-12-18T09:54:49;42.63;;;19.98;;
74908;SDS011;63468;52.058;4.824;2022-12-18T09:57:17;33.70;;;17.58;;
74908;SDS011;63468;52.058;4.824;2022-12-18T09:59:46;34.00;;;17.67;;
74908;SDS011;63468;52.058;4.824;2022-12-18T10:02:17;39.90;;;20.13;;
74908;SDS011;63468;52.058;4.824;2022-12-18T10:04:54;38.67;;;18.70;;
74908;SDS011;63468;52.058;4.824;2022-12-18T10:07:27;41.08;;;20.13;;
74908;SDS011;63468;52.058;4.824;2022-12-18T10:10:01;38.28;;;19.40;;
74908;SDS011;63468;52.058;4.824;2022-12-18T10:12:32;33.97;;;19.25;;
74908;SDS011;63468;52.058;4.824;2022-12-18T10:17:44;40.47;;;18.55;;
74908;SDS011;63468;52.058;4.824;2022-12-18T10:20:17;39.30;;;19.52;;
74908;SDS011;63468;52.058;4.824;2022-12-18T10:23:00;37.17;;;18.70;;
74908;SDS011;63468;52.058;4.824;2022-12-18T10:25:39;37.13;;;17.60;;
74908;SDS011;63468;52.058;4.824;2022-12-18T10:28:27;40.70;;;19.92;;
74908;SDS011;63468;52.058;4.824;2022-12-18T10:30:55;37.65;;;18.98;;
74908;SDS011;63468;52.058;4.824;2022-12-18T10:33:22;33.97;;;18.63;;
74908;SDS011;63468;52.058;4.824;2022-12-18T10:35:51;35.20;;;18.60;;
74908;SDS011;63468;52.058;4.824;2022-12-18T10:48:47;43.72;;;21.17;;
74908;SDS011;63468;52.058;4.824;2022-12-18T10:51:31;40.72;;;19.20;;
74908;SDS011;63468;52.058;4.824;2022-12-18T10:56:28;36.22;;;19.38;;
74908;SDS011;63468;52.058;4.824;2022-12-18T10:58:55;33.45;;;18.73;;
74908;SDS011;63468;52.058;4.824;2022-12-18T11:01:22;41.47;;;20.67;;
74908;SDS011;63468;52.058;4.824;2022-12-18T11:06:19;38.70;;;20.52;;
74908;SDS011;63468;52.058;4.824;2022-12-18T11:11:57;33.30;;;18.05;;
74908;SDS011;63468;52.058;4.824;2022-12-18T11:14:28;37.58;;;18.65;;
74908;SDS011;63468;52.058;4.824;2022-12-18T11:19:34;32.28;;;16.25;;
74908;SDS011;63468;52.058;4.824;2022-12-18T11:22:01;35.75;;;15.48;;
74908;SDS011;63468;52.058;4.824;2022-12-18T11:24:30;37.40;;;17.40;;
74908;SDS011;63468;52.058;4.824;2022-12-18T11:26:58;29.92;;;16.83;;
74908;SDS011;63468;52.058;4.824;2022-12-18T11:29:28;38.10;;;17.15;;
74908;SDS011;63468;52.058;4.824;2022-12-18T11:32:25;30.77;;;17.35;;
74908;SDS011;63468;52.058;4.824;2022-12-18T11:35:11;35.10;;;16.92;;
74908;SDS011;63468;52.058;4.824;2022-12-18T11:37:41;30.08;;;17.65;;
74908;SDS011;63468;52.058;4.824;2022-12-18T11:40:13;31.67;;;17.42;;
74908;SDS011;63468;52.058;4.824;2022-12-18T11:45:48;36.13;;;16.92;;
74908;SDS011;63468;52.058;4.824;2022-12-18T11:50:53;34.10;;;18.98;;
74908;SDS011;63468;52.058;4.824;2022-12-18T11:53:21;29.83;;;16.52;;
74908;SDS011;63468;52.058;4.824;2022-12-18T11:55:51;31.17;;;18.13;;
74908;SDS011;63468;52.058;4.824;2022-12-18T11:58:30;34.72;;;17.83;;
74908;SDS011;63468;52.058;4.824;2022-12-18T12:01:23;29.30;;;16.90;;
74908;SDS011;63468;52.058;4.824;2022-12-18T12:09:37;35.30;;;18.95;;
74908;SDS011;63468;52.058;4.824;2022-12-18T12:17:51;33.05;;;17.10;;
74908;SDS011;63468;52.058;4.824;2022-12-18T12:20:26;35.08;;;18.05;;
74908;SDS011;63468;52.058;4.824;2022-12-18T12:23:05;37.88;;;20.23;;
74908;SDS011;63468;52.058;4.824;2022-12-18T12:25:38;38.42;;;18.35;;
74908;SDS011;63468;52.058;4.824;2022-12-18T12:33:56;33.47;;;19.00;;
74908;SDS011;63468;52.058;4.824;2022-12-18T12:36:34;30.08;;;16.73;;
74908;SDS011;63468;52.058;4.824;2022-12-18T12:39:04;31.88;;;16.00;;
74908;SDS011;63468;52.058;4.824;2022-12-18T12:41:31;30.55;;;17.65;;
74908;SDS011;63468;52.058;4.824;2022-12-18T12:44:17;28.48;;;16.40;;
74908;SDS011;63468;52.058;4.824;2022-12-18T12:46:46;39.40;;;19.75;;
74908;SDS011;63468;52.058;4.824;2022-12-18T12:49:14;34.92;;;19.00;;
74908;SDS011;63468;52.058;4.824;2022-12-18T12:51:43;37.28;;;19.02;;
74908;SDS011;63468;52.058;4.824;2022-12-18T12:54:21;37.65;;;19.42;;
74908;SDS011;63468;52.058;4.824;2022-12-18T12:56:50;33.65;;;17.60;;
74908;SDS011;63468;52.058;4.824;2022-12-18T12:59:39;31.00;;;17.17;;
74908;SDS011;63468;52.058;4.824;2022-12-18T13:02:22;31.88;;;17.17;;
74908;SDS011;63468;52.058;4.824;2022-12-18T13:08:28;37.97;;;18.38;;
74908;SDS011;63468;52.058;4.824;2022-12-18T13:10:55;38.60;;;18.77;;
74908;SDS011;63468;52.058;4.824;2022-12-18T13:16:18;42.50;;;20.45;;
74908;SDS011;63468;52.058;4.824;2022-12-18T13:21:23;34.20;;;19.08;;
74908;SDS011;63468;52.058;4.824;2022-12-18T13:23:52;41.97;;;19.92;;
74908;SDS011;63468;52.058;4.824;2022-12-18T13:31:11;39.95;;;21.00;;
74908;SDS011;63468;52.058;4.824;2022-12-18T13:36:25;37.50;;;19.52;;
74908;SDS011;63468;52.058;4.824;2022-12-18T13:39:11;33.83;;;19.35;;
74908;SDS011;63468;52.058;4.824;2022-12-18T13:41:40;36.70;;;19.33;;
74908;SDS011;63468;52.058;4.824;2022-12-18T13:46:43;37.95;;;20.23;;
74908;SDS011;63468;52.058;4.824;2022-12-18T13:51:34;31.85;;;17.90;;
74908;SDS011;63468;52.058;4.824;2022-12-18T13:54:01;35.60;;;19.90;;
74908;SDS011;63468;52.058;4.824;2022-12-18T13:56:30;35.25;;;19.20;;
74908;SDS011;63468;52.058;4.824;2022-12-18T13:59:32;31.75;;;21.15;;
74908;SDS011;63468;52.058;4.824;2022-12-18T14:01:56;33.65;;;20.42;;
74908;SDS011;63468;52.058;4.824;2022-12-18T14:06:49;36.30;;;19.85;;
74908;SDS011;63468;52.058;4.824;2022-12-18T14:09:21;38.03;;;19.20;;
74908;SDS011;63468;52.058;4.824;2022-12-18T14:11:50;38.65;;;21.90;;
74908;SDS011;63468;52.058;4.824;2022-12-18T14:14:16;31.38;;;18.55;;
74908;SDS011;63468;52.058;4.824;2022-12-18T14:16:42;35.00;;;19.00;;
74908;SDS011;63468;52.058;4.824;2022-12-18T14:19:10;37.03;;;18.15;;
74908;SDS011;63468;52.058;4.824;2022-12-18T14:21:46;36.60;;;19.20;;
74908;SDS011;63468;52.058;4.824;2022-12-18T14:24:13;38.35;;;19.58;;
74908;SDS011;63468;52.058;4.824;2022-12-18T14:26:47;37.28;;;19.13;;
74908;SDS011;63468;52.058;4.824;2022-12-18T14:32:11;38.13;;;19.02;;
74908;SDS011;63468;52.058;4.824;2022-12-18T14:34:43;36.33;;;18.95;;
74908;SDS011;63468;52.058;4.824;2022-12-18T14:37:16;36.05;;;18.58;;
74908;SDS011;63468;52.058;4.824;2022-12-18T14:39:59;44.42;;;20.33;;
74908;SDS011;63468;52.058;4.824;2022-12-18T14:42:26;42.20;;;21.80;;
74908;SDS011;63468;52.058;4.824;2022-12-18T14:45:31;33.97;;;20.02;;
74908;SDS011;63468;52.058;4.824;2022-12-18T14:47:56;32.20;;;18.40;;
74908;SDS011;63468;52.058;4.824;2022-12-18T14:50:22;41.83;;;21.02;;
74908;SDS011;63468;52.058;4.824;2022-12-18T14:52:47;31.88;;;17.58;;
74908;SDS011;63468;52.058;4.824;2022-12-18T14:55:14;33.78;;;18.50;;
74908;SDS011;63468;52.058;4.824;2022-12-18T14:57:41;34.20;;;18.27;;
74908;SDS011;63468;52.058;4.824;2022-12-18T15:00:15;37.50;;;19.30;;
74908;SDS011;63468;52.058;4.824;2022-12-18T15:02:42;41.72;;;21.17;;
74908;SDS011;63468;52.058;4.824;2022-12-18T15:07:45;38.83;;;18.52;;
74908;SDS011;63468;52.058;4.824;2022-12-18T15:10:12;40.15;;;19.80;;
74908;SDS011;63468;52.058;4.824;2022-12-18T15:12:46;33.90;;;19.05;;
74908;SDS011;63468;52.058;4.824;2022-12-18T15:18:04;38.53;;;20.40;;
74908;SDS011;63468;52.058;4.824;2022-12-18T15:20:38;38.80;;;20.45;;
74908;SDS011;63468;52.058;4.824;2022-12-18T15:25:37;35.33;;;18.52;;
74908;SDS011;63468;52.058;4.824;2022-12-18T15:28:03;33.10;;;18.60;;
74908;SDS011;63468;52.058;4.824;2022-12-18T15:30:28;40.78;;;19.00;;
74908;SDS011;63468;52.058;4.824;2022-12-18T15:33:17;35.20;;;19.73;;
74908;SDS011;63468;52.058;4.824;2022-12-18T15:35:59;33.85;;;18.95;;
74908;SDS011;63468;52.058;4.824;2022-12-18T15:38:25;41.70;;;19.40;;
74908;SDS011;63468;52.058;4.824;2022-12-18T15:40:52;32.58;;;17.40;;
74908;SDS011;63468;52.058;4.824;2022-12-18T15:43:18;35.22;;;18.90;;
74908;SDS011;63468;52.058;4.824;2022-12-18T15:46:01;34.47;;;19.70;;
74908;SDS011;63468;52.058;4.824;2022-12-18T15:48:26;39.35;;;22.15;;
74908;SDS011;63468;52.058;4.824;2022-12-18T15:50:52;35.38;;;18.85;;
74908;SDS011;63468;52.058;4.824;2022-12-18T15:53:21;38.70;;;19.17;;
74908;SDS011;63468;52.058;4.824;2022-12-18T15:55:47;37.40;;;20.02;;
74908;SDS011;63468;52.058;4.824;2022-12-18T15:58:31;37.35;;;19.95;;
74908;SDS011;63468;52.058;4.824;2022-12-18T16:00:57;39.20;;;20.77;;
74908;SDS011;63468;52.058;4.824;2022-12-18T16:03:23;38.35;;;18.85;;
74908;SDS011;63468;52.058;4.824;2022-12-18T16:05:49;32.13;;;19.77;;
74908;SDS011;63468;52.058;4.824;2022-12-18T16:08:14;36.72;;;20.40;;
74908;SDS011;63468;52.058;4.824;2022-12-18T16:10:39;37.72;;;20.55;;
74908;SDS011;63468;52.058;4.824;2022-12-18T16:13:05;40.60;;;21.60;;
74908;SDS011;63468;52.058;4.824;2022-12-18T16:15:32;45.28;;;20.42;;